createdAt,value
2018-12-03T00:00:27.521Z,15.42
2018-12-03T00:01:28.041Z,15.39
2018-12-03T00:02:29.617Z,15.35
2018-12-03T00:03:30.078Z,15.37
2018-12-03T00:04:31.645Z,15.39
2018-12-03T00:05:32.187Z,15.40
2018-12-03T00:06:34.727Z,15.44
2018-12-03T00:07:35.229Z,15.40
2018-12-03T00:08:35.757Z,15.35
2018-12-03T00:09:36.279Z,15.39
2018-12-03T00:10:45.404Z,15.36
2018-12-03T00:11:45.924Z,15.37
2018-12-03T00:12:47.564Z,15.36
2018-12-03T00:13:48.081Z,15.37
2018-12-03T00:14:49.656Z,15.42
2018-12-03T00:15:50.146Z,15.43
2018-12-03T00:16:51.684Z,15.37
2018-12-03T00:17:52.245Z,15.40
2018-12-03T00:18:53.869Z,15.40
2018-12-03T00:19:54.411Z,15.44
2018-12-03T00:21:02.906Z,15.44
2018-12-03T00:22:03.391Z,15.49
2018-12-03T00:23:10.904Z,15.47
2018-12-03T00:24:11.389Z,15.54
2018-12-03T00:25:12.994Z,15.54
2018-12-03T00:26:13.449Z,15.51
2018-12-03T00:27:14.983Z,15.55
2018-12-03T00:28:15.496Z,15.47
2018-12-03T00:29:24.952Z,15.52
2018-12-03T00:30:25.503Z,15.43
2018-12-03T00:31:28.026Z,15.43
2018-12-03T00:32:28.554Z,15.49
2018-12-03T00:33:29.058Z,15.49
2018-12-03T00:34:29.550Z,15.49
2018-12-03T00:35:31.128Z,15.46
2018-12-03T00:36:31.634Z,15.49
2018-12-03T00:37:32.295Z,15.49
2018-12-03T00:38:32.782Z,15.49
2018-12-03T00:39:33.435Z,15.47
2018-12-03T00:40:33.900Z,15.51
2018-12-03T00:41:34.441Z,15.52
2018-12-03T00:42:34.933Z,15.54
2018-12-03T00:43:37.514Z,15.55
2018-12-03T00:44:38.039Z,15.54
2018-12-03T00:45:40.606Z,15.61
2018-12-03T00:46:41.131Z,15.58
2018-12-03T00:47:43.692Z,15.55
2018-12-03T00:48:44.264Z,15.58
2018-12-03T00:49:59.362Z,15.51
2018-12-03T00:50:59.889Z,15.54
2018-12-03T00:52:01.439Z,15.55
2018-12-03T00:53:01.938Z,15.52
2018-12-03T00:54:02.457Z,15.55
2018-12-03T00:55:02.993Z,15.47
2018-12-03T00:56:11.379Z,15.51
2018-12-03T00:57:11.916Z,15.57
2018-12-03T00:58:13.454Z,15.54
2018-12-03T00:59:13.952Z,15.55
2018-12-03T01:00:14.605Z,15.57
2018-12-03T01:01:15.102Z,15.57
2018-12-03T01:02:16.660Z,15.57
2018-12-03T01:03:17.172Z,15.49
2018-12-03T01:04:17.817Z,15.46
2018-12-03T01:05:18.330Z,15.42
2018-12-03T01:06:18.930Z,15.40
2018-12-03T01:07:19.439Z,15.36
2018-12-03T01:08:19.977Z,15.36
2018-12-03T01:09:20.492Z,15.28
2018-12-03T01:10:21.013Z,15.33
2018-12-03T01:11:21.569Z,15.29
2018-12-03T01:12:22.152Z,15.27
2018-12-03T01:13:22.674Z,15.29
2018-12-03T01:14:23.297Z,15.22
2018-12-03T01:15:23.813Z,15.24
2018-12-03T01:16:24.321Z,15.21
2018-12-03T01:17:24.836Z,15.25
2018-12-03T01:18:25.472Z,15.27
2018-12-03T01:19:26.001Z,15.25
2018-12-03T01:20:26.517Z,15.27
2018-12-03T01:21:27.043Z,15.19
2018-12-03T01:22:27.640Z,15.27
2018-12-03T01:23:28.182Z,15.33
2018-12-03T01:24:28.786Z,15.28
2018-12-03T01:25:29.313Z,15.25
2018-12-03T01:26:29.941Z,15.28
2018-12-03T01:27:30.438Z,15.29
2018-12-03T01:28:31.149Z,15.31
2018-12-03T01:29:31.666Z,15.33
2018-12-03T01:30:32.233Z,15.28
2018-12-03T01:31:32.756Z,15.29
2018-12-03T01:32:34.356Z,15.29
2018-12-03T01:33:34.883Z,15.29
2018-12-03T01:34:35.505Z,15.36
2018-12-03T01:35:35.989Z,15.31
2018-12-03T01:36:36.532Z,15.29
2018-12-03T01:37:37.045Z,15.28
2018-12-03T01:38:37.582Z,15.28
2018-12-03T01:39:38.062Z,15.19
2018-12-03T01:40:38.612Z,15.29
2018-12-03T01:41:39.162Z,15.22
2018-12-03T01:42:39.733Z,15.25
2018-12-03T01:43:40.240Z,15.28
2018-12-03T01:44:40.768Z,15.33
2018-12-03T01:45:41.298Z,15.29
2018-12-03T01:46:41.792Z,15.29
2018-12-03T01:47:42.438Z,15.29
2018-12-03T01:48:42.996Z,15.19
2018-12-03T01:49:43.507Z,15.35
2018-12-03T01:50:44.009Z,15.25
2018-12-03T01:51:44.646Z,15.22
2018-12-03T01:52:45.163Z,15.24
2018-12-03T01:53:45.759Z,15.21
2018-12-03T01:54:46.256Z,15.24
2018-12-03T01:55:46.772Z,15.11
2018-12-03T01:56:47.277Z,15.11
2018-12-03T01:57:47.825Z,15.11
2018-12-03T01:58:48.339Z,15.07
2018-12-03T01:59:48.861Z,15.15
2018-12-03T02:00:49.376Z,15.10
2018-12-03T02:01:49.868Z,15.10
2018-12-03T02:02:50.410Z,15.14
2018-12-03T02:03:50.941Z,15.19
2018-12-03T02:04:51.445Z,15.25
2018-12-03T02:05:51.984Z,15.19
2018-12-03T02:06:52.508Z,15.15
2018-12-03T02:07:53.013Z,15.18
2018-12-03T02:08:53.549Z,15.25
2018-12-03T02:09:54.067Z,15.19
2018-12-03T02:10:54.568Z,15.18
2018-12-03T02:11:55.196Z,15.22
2018-12-03T02:12:55.707Z,15.21
2018-12-03T02:13:56.317Z,15.24
2018-12-03T02:14:56.825Z,15.24
2018-12-03T02:15:57.357Z,15.25
2018-12-03T02:16:57.879Z,15.19
2018-12-03T02:17:58.417Z,15.25
2018-12-03T02:18:59.037Z,15.19
2018-12-03T02:19:59.526Z,15.25
2018-12-03T02:21:00.070Z,15.22
2018-12-03T02:22:00.618Z,15.28
2018-12-03T02:23:01.213Z,15.28
2018-12-03T02:24:01.696Z,15.21
2018-12-03T02:25:02.252Z,15.22
2018-12-03T02:26:02.790Z,15.10
2018-12-03T02:27:03.374Z,15.19
2018-12-03T02:28:04.057Z,15.27
2018-12-03T02:29:04.643Z,15.21
2018-12-03T02:30:05.138Z,15.25
2018-12-03T02:31:05.653Z,15.24
2018-12-03T02:32:06.166Z,15.24
2018-12-03T02:33:06.675Z,15.22
2018-12-03T02:34:07.179Z,15.22
2018-12-03T02:35:07.711Z,15.21
2018-12-03T02:36:08.214Z,15.27
2018-12-03T02:37:08.740Z,15.22
2018-12-03T02:38:09.240Z,15.29
2018-12-03T02:39:09.730Z,15.18
2018-12-03T02:40:10.316Z,15.19
2018-12-03T02:41:10.831Z,15.25
2018-12-03T02:42:11.450Z,15.25
2018-12-03T02:43:11.988Z,15.24
2018-12-03T02:44:12.620Z,15.28
2018-12-03T02:45:13.428Z,15.24
2018-12-03T02:46:13.977Z,15.24
2018-12-03T02:47:14.481Z,15.19
2018-12-03T02:48:15.078Z,15.21
2018-12-03T02:49:15.590Z,15.31
2018-12-03T02:50:16.129Z,15.29
2018-12-03T02:51:16.626Z,15.27
2018-12-03T02:52:17.153Z,15.25
2018-12-03T02:53:17.662Z,15.22
2018-12-03T02:54:18.192Z,15.24
2018-12-03T02:55:18.687Z,15.24
2018-12-03T02:56:19.227Z,15.21
2018-12-03T02:57:19.731Z,15.21
2018-12-03T02:58:20.268Z,15.17
2018-12-03T02:59:20.806Z,15.24
2018-12-03T03:00:21.300Z,15.19
2018-12-03T03:01:21.936Z,15.21
2018-12-03T03:02:22.425Z,15.22
2018-12-03T03:03:22.982Z,15.22
2018-12-03T03:04:23.513Z,15.19
2018-12-03T03:05:24.139Z,15.22
2018-12-03T03:06:24.604Z,15.15
2018-12-03T03:07:25.246Z,15.11
2018-12-03T03:08:25.760Z,15.17
2018-12-03T03:09:26.367Z,15.14
2018-12-03T03:10:26.887Z,15.11
2018-12-03T03:11:27.416Z,15.11
2018-12-03T03:12:27.967Z,15.11
2018-12-03T03:13:28.456Z,15.11
2018-12-03T03:14:28.970Z,15.18
2018-12-03T03:15:29.489Z,15.10
2018-12-03T03:16:30.031Z,15.21
2018-12-03T03:17:30.526Z,15.18
2018-12-03T03:18:31.141Z,15.15
2018-12-03T03:19:31.648Z,15.10
2018-12-03T03:20:32.193Z,15.09
2018-12-03T03:21:32.711Z,15.14
2018-12-03T03:22:33.309Z,15.10
2018-12-03T03:23:33.815Z,15.11
2018-12-03T03:24:35.383Z,15.09
2018-12-03T03:25:35.924Z,15.14
2018-12-03T03:26:36.424Z,15.11
2018-12-03T03:27:36.950Z,15.11
2018-12-03T03:28:39.516Z,15.11
2018-12-03T03:29:40.061Z,15.15
2018-12-03T03:30:40.807Z,15.11
2018-12-03T03:31:41.179Z,15.17
2018-12-03T03:32:41.787Z,15.14
2018-12-03T03:33:42.322Z,15.11
2018-12-03T03:34:42.925Z,15.14
2018-12-03T03:35:43.473Z,15.11
2018-12-03T03:36:44.071Z,15.15
2018-12-03T03:37:44.569Z,15.11
2018-12-03T03:38:45.196Z,15.10
2018-12-03T03:39:45.724Z,15.15
2018-12-03T03:40:46.347Z,15.19
2018-12-03T03:41:46.833Z,15.11
2018-12-03T03:42:47.368Z,15.09
2018-12-03T03:44:08.882Z,15.09
2018-12-03T03:45:09.396Z,15.18
2018-12-03T03:46:09.920Z,15.18
2018-12-03T03:47:10.429Z,15.14
2018-12-03T03:48:10.963Z,15.15
2018-12-03T03:49:11.470Z,15.14
2018-12-03T03:50:12.013Z,15.17
2018-12-03T03:51:12.530Z,15.15
2018-12-03T03:52:13.032Z,15.10
2018-12-03T03:53:13.535Z,15.11
2018-12-03T03:54:14.015Z,15.10
2018-12-03T03:55:14.520Z,15.09
2018-12-03T03:56:15.019Z,15.09
2018-12-03T03:57:15.629Z,15.11
2018-12-03T03:58:16.159Z,15.09
2018-12-03T03:59:16.620Z,15.03
2018-12-03T04:00:17.142Z,14.97
2018-12-03T04:01:19.643Z,14.99
2018-12-03T04:02:20.153Z,15.04
2018-12-03T04:03:21.730Z,14.99
2018-12-03T04:04:22.231Z,15.02
2018-12-03T04:05:22.715Z,15.02
2018-12-03T04:06:23.216Z,14.94
2018-12-03T04:07:23.781Z,14.97
2018-12-03T04:08:24.300Z,14.94
2018-12-03T04:09:24.814Z,14.96
2018-12-03T04:10:25.342Z,15.00
2018-12-03T04:11:25.953Z,15.04
2018-12-03T04:12:26.468Z,14.97
2018-12-03T04:13:33.959Z,14.97
2018-12-03T04:14:34.568Z,15.02
2018-12-03T04:15:35.078Z,15.02
2018-12-03T04:16:36.640Z,15.02
2018-12-03T04:17:38.221Z,14.99
2018-12-03T04:18:38.720Z,15.02
2018-12-03T04:19:39.376Z,14.99
2018-12-03T04:20:39.814Z,15.00
2018-12-03T04:21:41.397Z,14.94
2018-12-03T04:22:41.894Z,15.06
2018-12-03T04:23:42.413Z,15.06
2018-12-03T04:24:44.285Z,14.99
2018-12-03T04:25:44.809Z,15.06
2018-12-03T04:26:45.303Z,15.00
2018-12-03T04:27:45.819Z,14.94
2018-12-03T04:28:47.788Z,14.99
2018-12-03T04:29:48.350Z,14.99
2018-12-03T04:32:00.965Z,14.99
2018-12-03T04:33:01.456Z,15.02
2018-12-03T04:34:04.084Z,14.94
2018-12-03T04:35:04.589Z,14.96
2018-12-03T04:36:05.113Z,14.97
2018-12-03T04:37:07.698Z,14.96
2018-12-03T04:38:08.220Z,14.94
2018-12-03T04:39:24.454Z,14.99
2018-12-03T04:40:24.926Z,15.02
2018-12-03T04:41:49.432Z,14.99
2018-12-03T04:42:49.913Z,14.97
2018-12-03T04:43:51.513Z,14.94
2018-12-03T04:44:51.960Z,14.86
2018-12-03T04:46:01.417Z,14.96
2018-12-03T04:47:01.972Z,14.91
2018-12-03T04:48:04.505Z,14.89
2018-12-03T04:49:04.998Z,14.99
2018-12-03T04:50:26.648Z,14.96
2018-12-03T04:51:27.139Z,14.92
2018-12-03T04:52:50.750Z,14.97
2018-12-03T04:53:51.230Z,14.96
2018-12-03T04:54:51.839Z,14.88
2018-12-03T04:55:52.349Z,14.88
2018-12-03T04:56:52.907Z,14.92
2018-12-03T04:57:53.431Z,14.84
2018-12-03T04:59:10.010Z,14.79
2018-12-03T05:00:12.566Z,14.82
2018-12-03T05:01:13.090Z,14.86
2018-12-03T05:02:15.665Z,14.92
2018-12-03T05:03:16.266Z,14.91
2018-12-03T05:04:16.784Z,14.79
2018-12-03T05:05:38.340Z,14.88
2018-12-03T05:06:38.818Z,14.81
2018-12-03T05:07:41.413Z,14.89
2018-12-03T05:08:41.887Z,14.84
2018-12-03T05:09:58.487Z,14.88
2018-12-03T05:10:59.045Z,14.81
2018-12-03T05:12:22.571Z,14.82
2018-12-03T05:13:23.099Z,14.91
2018-12-03T05:14:32.411Z,14.91
2018-12-03T05:15:40.928Z,14.88
2018-12-03T05:16:41.427Z,14.88
2018-12-03T05:17:42.981Z,14.88
2018-12-03T05:18:43.501Z,14.84
2018-12-03T05:19:45.048Z,14.85
2018-12-03T05:20:45.603Z,14.94
2018-12-03T05:21:46.124Z,14.91
2018-12-03T05:22:55.508Z,14.92
2018-12-03T05:23:56.026Z,14.88
2018-12-03T05:25:11.489Z,14.88
2018-12-03T05:26:12.021Z,14.91
2018-12-03T05:27:21.473Z,14.91
2018-12-03T05:28:21.947Z,14.92
2018-12-03T05:29:30.468Z,14.92
2018-12-03T05:30:30.985Z,14.86
2018-12-03T06:56:06.994Z,14.50
2018-12-03T06:57:07.489Z,14.53
2018-12-03T07:00:01.505Z,14.53
2018-12-03T07:01:02.076Z,14.41
2018-12-03T07:03:56.099Z,14.54
2018-12-03T07:04:56.646Z,14.50
2018-12-03T07:05:57.195Z,14.53
2018-12-03T07:06:57.712Z,14.55
2018-12-03T07:07:58.196Z,14.59
2018-12-03T07:08:58.754Z,14.53
2018-12-03T07:09:59.276Z,14.55
2018-12-03T07:10:59.778Z,14.58
2018-12-03T07:12:00.271Z,14.50
2018-12-03T07:13:00.789Z,14.59
2018-12-03T07:14:01.275Z,14.54
2018-12-03T07:15:01.793Z,14.59
2018-12-03T07:16:02.294Z,14.58
2018-12-03T07:17:02.794Z,14.58
2018-12-03T07:18:03.302Z,14.59
2018-12-03T07:19:03.806Z,14.58
2018-12-03T07:20:04.315Z,14.63
2018-12-03T07:21:04.814Z,14.58
2018-12-03T07:22:05.351Z,14.54
2018-12-03T07:23:05.856Z,14.68
2018-12-03T07:24:06.416Z,14.62
2018-12-03T07:25:07.043Z,14.70
2018-12-03T07:26:07.544Z,14.66
2018-12-03T07:27:08.215Z,14.60
2018-12-03T07:28:08.702Z,14.66
2018-12-03T07:29:09.192Z,14.59
2018-12-03T07:30:09.717Z,14.59
2018-12-03T07:31:10.229Z,14.60
2018-12-03T07:32:10.742Z,14.59
2018-12-03T07:33:11.431Z,14.54
2018-12-03T07:34:11.945Z,14.58
2018-12-03T07:35:12.477Z,14.54
2018-12-03T07:36:13.007Z,14.50
2018-12-03T07:37:13.499Z,14.40
2018-12-03T07:38:14.039Z,14.47
2018-12-03T07:39:14.538Z,14.47
2018-12-03T07:40:15.043Z,14.44
2018-12-03T07:41:15.657Z,14.40
2018-12-03T07:42:16.171Z,14.40
2018-12-03T07:43:16.700Z,14.47
2018-12-03T07:44:17.191Z,14.44
2018-12-03T07:45:17.708Z,14.40
2018-12-03T07:46:18.237Z,14.36
2018-12-03T07:47:18.996Z,14.41
2018-12-03T07:48:19.478Z,14.43
2018-12-03T07:49:20.010Z,14.40
2018-12-03T07:50:20.576Z,14.36
2018-12-03T07:51:22.275Z,14.40
2018-12-03T07:52:22.792Z,14.41
2018-12-03T07:53:23.540Z,14.35
2018-12-03T07:54:24.036Z,14.41
2018-12-03T07:55:40.179Z,14.28
2018-12-03T07:56:40.696Z,14.30
2018-12-03T07:57:41.370Z,14.28
2018-12-03T07:58:41.900Z,14.30
2018-12-03T07:59:42.632Z,14.26
2018-12-03T08:00:43.160Z,14.18
2018-12-03T08:01:43.763Z,14.23
2018-12-03T08:02:44.284Z,14.25
2018-12-03T08:03:46.892Z,14.25
2018-12-03T08:04:47.368Z,14.28
2018-12-03T08:05:47.994Z,14.26
2018-12-03T08:06:48.470Z,14.32
2018-12-03T08:07:49.122Z,14.25
2018-12-03T08:08:49.672Z,14.23
2018-12-03T08:09:50.271Z,14.29
2018-12-03T08:10:50.752Z,14.26
2018-12-03T08:11:51.523Z,14.18
2018-12-03T08:12:52.031Z,14.17
2018-12-03T08:13:52.708Z,14.18
2018-12-03T08:14:53.169Z,14.23
2018-12-03T08:15:53.800Z,14.18
2018-12-03T08:16:54.323Z,14.26
2018-12-03T08:17:54.936Z,14.28
2018-12-03T08:18:55.561Z,14.22
2018-12-03T08:19:56.632Z,14.20
2018-12-03T08:20:56.731Z,14.23
2018-12-03T08:21:57.326Z,14.26
2018-12-03T08:22:57.831Z,14.30
2018-12-03T08:23:59.476Z,14.33
2018-12-03T08:25:00.009Z,14.29
2018-12-03T08:26:00.653Z,14.33
2018-12-03T08:27:01.188Z,14.29
2018-12-03T08:28:01.730Z,14.28
2018-12-03T08:29:02.217Z,14.30
2018-12-03T08:31:13.107Z,14.26
2018-12-03T08:32:20.680Z,14.20
2018-12-03T08:33:21.315Z,14.20
2018-12-03T08:34:22.486Z,14.20
2018-12-03T08:35:23.013Z,14.23
2018-12-03T08:36:23.584Z,14.25
2018-12-03T08:37:24.087Z,14.25
2018-12-03T08:38:24.741Z,14.25
2018-12-03T08:39:25.249Z,14.26
2018-12-03T08:40:25.725Z,14.25
2018-12-03T08:41:28.350Z,14.15
2018-12-03T08:42:28.845Z,14.20
2018-12-03T08:43:31.417Z,14.25
2018-12-03T08:44:31.937Z,14.26
2018-12-03T08:58:33.717Z,14.54
2018-12-03T08:59:34.222Z,14.54
2018-12-03T09:00:34.781Z,14.53
2018-12-03T09:01:35.295Z,14.54
2018-12-03T09:02:35.806Z,14.58
2018-12-03T09:03:36.336Z,14.62
2018-12-03T09:04:36.854Z,14.55
2018-12-03T09:05:37.480Z,14.55
2018-12-03T09:06:38.002Z,14.62
2018-12-03T09:07:38.631Z,14.62
2018-12-03T09:08:39.129Z,14.60
2018-12-03T09:09:40.690Z,14.58
2018-12-03T09:10:41.182Z,14.55
2018-12-03T09:11:41.717Z,14.59
2018-12-03T09:12:42.249Z,14.62
2018-12-03T09:13:43.781Z,14.60
2018-12-03T09:14:44.293Z,14.55
2018-12-03T09:15:44.824Z,14.53
2018-12-03T09:16:45.318Z,14.62
2018-12-03T09:17:45.813Z,14.60
2018-12-03T09:18:46.414Z,14.59
2018-12-03T09:19:46.912Z,14.63
2018-12-03T09:20:47.423Z,14.59
2018-12-03T09:21:48.041Z,14.62
2018-12-03T09:22:48.539Z,14.53
2018-12-03T09:23:49.165Z,14.63
2018-12-03T09:24:49.696Z,14.77
2018-12-03T09:25:50.318Z,14.72
2018-12-03T09:26:50.824Z,14.66
2018-12-03T09:27:51.349Z,14.66
2018-12-03T09:28:51.849Z,14.81
2018-12-03T09:29:52.404Z,14.85
2018-12-03T09:30:52.902Z,14.86
2018-12-03T09:31:53.527Z,14.92
2018-12-03T09:32:54.023Z,14.97
2018-12-03T09:33:54.525Z,14.91
2018-12-03T09:34:55.092Z,14.99
2018-12-03T09:35:55.600Z,14.97
2018-12-03T09:36:56.097Z,14.94
2018-12-03T09:37:56.644Z,14.94
2018-12-03T09:38:57.190Z,14.97
2018-12-03T09:39:57.685Z,14.94
2018-12-03T09:40:58.304Z,15.02
2018-12-03T09:41:58.811Z,14.97
2018-12-03T09:42:59.317Z,14.94
2018-12-03T09:43:59.815Z,14.96
2018-12-03T09:45:00.352Z,14.97
2018-12-03T09:46:00.930Z,15.00
2018-12-03T09:47:03.201Z,14.94
2018-12-03T09:48:04.099Z,14.92
2018-12-03T09:49:06.341Z,14.91
2018-12-03T09:50:06.993Z,14.84
2018-12-03T09:51:07.990Z,14.82
2018-12-03T09:52:09.085Z,14.82
2018-12-03T09:53:09.652Z,14.92
2018-12-03T09:54:10.872Z,14.96
2018-12-03T09:55:11.954Z,14.92
2018-12-03T09:56:13.775Z,14.89
2018-12-03T09:57:14.354Z,14.91
2018-12-03T09:58:15.231Z,14.94
2018-12-03T09:59:16.440Z,14.97
2018-12-03T10:00:17.024Z,14.97
2018-12-03T10:01:17.783Z,14.97
2018-12-03T10:02:18.468Z,14.96
2018-12-03T10:03:19.282Z,14.97
2018-12-03T10:04:19.971Z,14.99
2018-12-03T10:05:20.707Z,14.91
2018-12-03T10:06:21.335Z,14.99
2018-12-03T10:07:22.126Z,15.02
2018-12-03T10:08:23.266Z,14.96
2018-12-03T10:09:24.190Z,14.96
2018-12-03T10:10:25.198Z,14.94
2018-12-03T10:11:26.137Z,14.96
2018-12-03T10:12:26.864Z,14.91
2018-12-03T10:13:27.898Z,14.94
2018-12-03T10:14:28.824Z,14.97
2018-12-03T10:15:30.049Z,14.94
2018-12-03T10:16:31.161Z,14.97
2018-12-03T10:17:33.286Z,14.94
2018-12-03T10:18:34.069Z,14.94
2018-12-03T10:19:34.802Z,14.99
2018-12-03T10:20:35.477Z,15.02
2018-12-03T10:21:36.235Z,14.97
2018-12-03T10:22:36.917Z,15.02
2018-12-03T10:23:37.588Z,15.04
2018-12-03T10:24:38.286Z,15.14
2018-12-03T10:25:40.971Z,15.10
2018-12-03T10:26:41.678Z,14.97
2018-12-03T10:27:42.424Z,15.04
2018-12-03T10:28:43.105Z,15.17
2018-12-03T10:29:43.904Z,15.17
2018-12-03T10:30:44.615Z,15.15
2018-12-03T10:31:45.233Z,15.24
2018-12-03T10:32:45.952Z,15.25
2018-12-03T10:33:46.669Z,15.17
2018-12-03T10:34:47.479Z,15.25
2018-12-03T10:35:48.191Z,15.35
2018-12-03T10:36:55.785Z,15.24
2018-12-03T10:37:56.478Z,15.31
2018-12-03T10:38:59.295Z,15.40
2018-12-03T10:39:59.974Z,15.40
2018-12-03T10:41:21.760Z,15.51
2018-12-03T10:42:22.458Z,15.40
2018-12-03T10:43:23.258Z,15.43
2018-12-03T10:44:23.951Z,15.37
2018-12-03T10:45:26.271Z,15.39
2018-12-03T10:46:25.407Z,15.42
2018-12-03T10:47:42.859Z,15.44
2018-12-03T10:48:43.543Z,15.40
2018-12-03T10:49:58.863Z,15.37
2018-12-03T10:50:59.520Z,15.39
2018-12-03T10:52:02.254Z,15.51
2018-12-03T10:53:02.957Z,15.44
2018-12-03T10:54:05.774Z,15.42
2018-12-03T10:55:06.421Z,15.39
2018-12-03T10:56:08.224Z,15.39
2018-12-03T10:57:08.885Z,15.43
2018-12-03T10:58:10.691Z,15.39
2018-12-03T10:59:11.358Z,15.47
2018-12-03T11:00:12.148Z,15.29
2018-12-03T11:01:12.797Z,15.37
2018-12-03T11:02:13.594Z,15.39
2018-12-03T11:03:14.262Z,15.39
2018-12-03T11:04:15.010Z,15.42
2018-12-03T11:05:15.733Z,15.43
2018-12-03T11:06:16.463Z,15.55
2018-12-03T11:07:17.124Z,15.55
2018-12-03T11:08:17.799Z,15.55
2018-12-03T11:09:18.483Z,15.55
2018-12-03T11:10:19.233Z,15.57
2018-12-03T11:11:19.939Z,15.55
2018-12-03T11:12:20.701Z,15.62
2018-12-03T11:13:21.384Z,15.72
2018-12-03T11:14:22.158Z,15.72
2018-12-03T11:15:22.830Z,15.72
2018-12-03T11:16:23.597Z,15.59
2018-12-03T11:17:24.260Z,15.62
2018-12-03T11:26:37.959Z,16.26
2018-12-03T11:27:39.008Z,16.39
2018-12-03T11:28:39.770Z,16.41
2018-12-03T11:29:40.501Z,16.46
2018-12-03T11:30:48.044Z,16.39
2018-12-03T11:31:48.775Z,16.36
2018-12-03T11:32:56.976Z,16.29
2018-12-03T11:33:57.666Z,16.12
2018-12-03T11:35:05.960Z,16.08
2018-12-03T11:36:05.655Z,16.00
2018-12-03T11:37:12.962Z,15.92
2018-12-03T11:38:13.651Z,15.86
2018-12-03T11:39:23.020Z,15.73
2018-12-03T11:40:23.704Z,15.76
2018-12-03T11:41:25.494Z,15.80
2018-12-03T11:42:26.176Z,15.65
2018-12-03T11:43:28.894Z,15.61
2018-12-03T11:44:29.583Z,15.64
2018-12-03T11:45:45.985Z,15.61
2018-12-03T11:46:46.662Z,15.65
2018-12-03T11:49:27.700Z,15.55
2018-12-03T11:50:43.044Z,15.54
2018-12-03T11:51:43.730Z,15.52
2018-12-03T11:52:53.000Z,15.55
2018-12-03T11:53:53.708Z,15.52
2018-12-03T11:55:11.029Z,15.55
2018-12-03T11:56:11.751Z,15.52
2018-12-03T11:57:12.496Z,15.55
2018-12-03T11:58:13.159Z,15.67
2018-12-03T11:59:39.517Z,15.64
2018-12-03T12:00:40.235Z,15.65
2018-12-03T12:47:54.618Z,15.76
2018-12-03T12:48:55.322Z,15.76
2018-12-03T12:49:56.029Z,15.82
2018-12-03T12:50:56.714Z,15.72
2018-12-03T12:51:57.390Z,15.65
2018-12-03T12:52:58.406Z,15.70
2018-12-03T12:53:59.121Z,15.82
2018-12-03T12:54:59.799Z,15.82
2018-12-03T12:56:00.570Z,15.88
2018-12-03T12:57:01.264Z,15.91
2018-12-03T12:58:02.022Z,15.84
2018-12-03T12:59:02.686Z,15.94
2018-12-03T13:00:03.460Z,15.76
2018-12-03T13:01:04.144Z,15.79
2018-12-03T13:02:04.907Z,15.84
2018-12-03T13:03:05.600Z,15.83
2018-12-03T13:04:06.270Z,15.68
2018-12-03T13:05:07.160Z,15.73
2018-12-03T13:06:07.826Z,15.80
2018-12-03T13:07:08.762Z,15.65
2018-12-03T13:08:09.433Z,15.73
2018-12-03T13:09:10.245Z,15.72
2018-12-03T13:10:10.964Z,15.67
2018-12-03T13:11:11.643Z,15.67
2018-12-03T13:12:12.383Z,15.65
2018-12-03T15:02:03.083Z,14.81
2018-12-03T15:03:03.858Z,14.72
2018-12-03T15:04:04.566Z,14.66
2018-12-03T15:05:07.355Z,14.63
2018-12-03T15:06:08.024Z,14.66
2018-12-03T15:07:16.588Z,14.65
2018-12-03T15:08:17.339Z,14.65
2018-12-03T15:09:18.130Z,14.70
2018-12-03T15:10:18.800Z,14.69
2018-12-03T15:11:20.602Z,14.72
2018-12-03T15:12:21.273Z,14.68
2018-12-03T15:13:23.254Z,14.63
2018-12-03T15:14:23.788Z,14.63
2018-12-03T15:15:24.461Z,14.60
2018-12-03T15:16:25.385Z,14.58
2018-12-03T15:17:26.047Z,14.55
2018-12-03T15:18:26.905Z,14.69
2018-12-03T15:19:27.590Z,14.62
2018-12-03T15:20:30.325Z,14.65
2018-12-03T15:21:30.983Z,14.65
2018-12-03T15:22:31.740Z,14.58
2018-12-03T15:23:32.419Z,14.59
2018-12-03T15:24:35.123Z,14.68
2018-12-03T15:25:35.846Z,14.69
2018-12-03T15:26:43.636Z,14.66
2018-12-03T15:27:44.319Z,14.66
2018-12-03T15:28:52.992Z,14.62
2018-12-03T15:29:53.689Z,14.68
2018-12-03T15:31:00.980Z,14.65
2018-12-03T15:32:01.689Z,14.65
2018-12-03T15:33:09.002Z,14.70
2018-12-03T15:34:09.657Z,14.62
2018-12-03T15:35:18.007Z,14.59
2018-12-03T15:36:18.714Z,14.72
2018-12-03T15:37:27.056Z,14.59
2018-12-03T15:38:27.685Z,14.65
2018-12-03T15:39:28.461Z,14.68
2018-12-03T15:40:29.139Z,14.70
2018-12-03T15:41:31.852Z,14.70
2018-12-03T15:42:32.526Z,14.60
2018-12-03T15:43:42.016Z,14.63
2018-12-03T15:44:42.684Z,14.62
2018-12-03T15:45:43.380Z,14.63
2018-12-03T15:46:46.142Z,14.60
2018-12-03T15:47:46.817Z,14.62
2018-12-03T15:48:47.683Z,14.65
2018-12-03T15:49:48.479Z,14.66
2018-12-03T15:50:49.314Z,14.60
2018-12-03T15:51:49.998Z,14.62
2018-12-03T15:52:50.704Z,14.69
2018-12-03T15:54:06.037Z,14.59
2018-12-03T15:55:06.720Z,14.58
2018-12-03T15:56:14.041Z,14.65
2018-12-03T15:57:14.739Z,14.55
2018-12-03T15:58:16.519Z,14.63
2018-12-03T15:59:17.183Z,14.59
2018-12-03T16:00:17.965Z,14.58
2018-12-03T16:01:18.641Z,14.53
2018-12-03T16:02:27.034Z,14.59
2018-12-03T16:03:27.650Z,14.63
2018-12-03T16:04:37.033Z,14.51
2018-12-03T16:05:37.725Z,14.65
2018-12-03T16:06:40.532Z,14.51
2018-12-03T16:07:41.218Z,14.55
2018-12-03T16:08:42.995Z,14.62
2018-12-03T16:09:43.697Z,14.58
2018-12-03T16:11:01.038Z,14.60
2018-12-03T16:12:01.710Z,14.65
2018-12-03T16:13:03.501Z,14.68
2018-12-03T16:14:04.221Z,14.66
2018-12-03T16:15:26.971Z,14.68
2018-12-03T16:16:27.725Z,14.63
2018-12-03T16:17:52.984Z,14.66
2018-12-03T16:18:53.683Z,14.65
2018-12-03T16:20:03.035Z,14.70
2018-12-03T16:21:03.721Z,14.68
2018-12-03T16:22:11.058Z,14.69
2018-12-03T16:23:11.819Z,14.60
2018-12-03T16:24:21.498Z,14.65
2018-12-03T16:25:22.167Z,14.68
2018-12-03T16:26:22.942Z,14.69
2018-12-03T16:27:23.621Z,14.68
2018-12-03T16:28:24.415Z,14.62
2018-12-03T16:29:25.055Z,14.68
2018-12-03T16:30:26.875Z,14.70
2018-12-03T16:31:27.546Z,14.62
2018-12-03T16:32:29.363Z,14.70
2018-12-03T16:33:29.999Z,14.68
2018-12-03T16:34:30.763Z,14.65
2018-12-03T16:35:31.438Z,14.62
2018-12-03T16:36:33.234Z,14.62
2018-12-03T16:37:33.916Z,14.63
2018-12-03T16:38:34.707Z,14.65
2018-12-03T16:39:35.389Z,14.65
2018-12-03T16:40:36.040Z,14.62
2018-12-03T16:41:44.550Z,14.66
2018-12-03T16:42:45.441Z,14.68
2018-12-03T16:43:47.219Z,14.63
2018-12-03T16:44:47.937Z,14.62
2018-12-03T16:45:49.719Z,14.65
2018-12-03T16:46:50.359Z,14.69
2018-12-03T16:47:52.191Z,14.63
2018-12-03T16:48:52.864Z,14.62
2018-12-03T16:49:53.629Z,14.60
2018-12-03T16:50:54.290Z,14.63
2018-12-03T16:51:55.060Z,14.54
2018-12-03T16:52:55.760Z,14.70
2018-12-03T16:53:58.569Z,14.66
2018-12-03T16:54:59.243Z,14.63
2018-12-03T16:56:01.026Z,14.58
2018-12-03T16:57:01.717Z,14.63
2018-12-03T16:58:02.404Z,14.50
2018-12-03T16:59:03.191Z,14.62
2018-12-03T17:00:03.858Z,14.62
2018-12-03T17:01:06.615Z,14.62
2018-12-03T17:02:07.267Z,14.54
2018-12-03T17:03:07.939Z,14.58
2018-12-03T17:04:09.781Z,14.55
2018-12-03T17:05:10.353Z,14.54
2018-12-03T17:06:11.134Z,14.51
2018-12-03T17:07:14.153Z,14.60
2018-12-03T17:08:12.576Z,14.51
2018-12-03T17:09:13.306Z,14.62
2018-12-03T17:10:14.034Z,14.62
2018-12-03T17:11:14.698Z,14.55
2018-12-03T17:12:15.478Z,14.59
2018-12-03T17:13:16.158Z,14.55
2018-12-03T17:14:16.932Z,14.51
2018-12-03T17:15:17.594Z,14.55
2018-12-03T17:16:18.356Z,14.51
2018-12-03T17:17:19.056Z,14.53
2018-12-03T17:18:20.033Z,14.55
2018-12-03T17:19:20.729Z,14.50
2018-12-03T17:20:21.395Z,14.48
2018-12-03T17:21:22.075Z,14.58
2018-12-03T17:22:23.845Z,14.54
2018-12-03T17:23:24.530Z,14.53
2018-12-03T17:24:25.296Z,14.59
2018-12-03T17:25:25.953Z,14.54
2018-12-03T17:26:26.725Z,14.55
2018-12-03T17:27:27.390Z,14.43
2018-12-03T17:28:28.097Z,14.53
2018-12-03T17:29:28.813Z,14.55
2018-12-03T17:30:29.458Z,14.51
2018-12-03T17:31:30.187Z,14.58
2018-12-03T17:32:31.064Z,14.50
2018-12-03T17:33:31.731Z,14.55
2018-12-03T17:34:32.411Z,14.48
2018-12-03T17:35:33.105Z,14.54
2018-12-03T17:36:33.760Z,14.50
2018-12-03T17:37:34.451Z,14.44
2018-12-03T17:38:35.215Z,14.44
2018-12-03T17:39:35.885Z,14.51
2018-12-03T17:40:36.587Z,14.59
2018-12-03T17:41:37.243Z,14.59
2018-12-03T17:42:38.002Z,14.53